createdAt,value
2019-04-29T00:01:03.041Z,11.90
2019-04-29T00:03:40.813Z,11.80
2019-04-29T00:06:17.605Z,11.80
2019-04-29T00:08:43.153Z,11.90
2019-04-29T00:11:21.799Z,11.90
2019-04-29T00:13:53.456Z,11.90
2019-04-29T00:17:00.741Z,11.90
2019-04-29T00:19:54.423Z,11.90
2019-04-29T00:22:26.887Z,11.90
2019-04-29T00:25:16.190Z,11.90
2019-04-29T00:27:47.223Z,11.90
2019-04-29T00:30:27.031Z,11.80
2019-04-29T00:33:02.996Z,11.90
2019-04-29T00:35:37.133Z,11.90
2019-04-29T00:38:33.764Z,11.90
2019-04-29T00:41:31.451Z,11.90
2019-04-29T00:44:03.538Z,11.90
2019-04-29T00:46:38.910Z,11.90
2019-04-29T00:49:10.224Z,11.90
2019-04-29T00:51:45.544Z,11.90
2019-04-29T00:54:40.294Z,11.80
2019-04-29T00:57:12.987Z,11.90
2019-04-29T00:59:42.650Z,11.90
2019-04-29T01:02:15.363Z,11.90
2019-04-29T01:04:55.392Z,11.90
2019-04-29T01:07:27.151Z,11.90
2019-04-29T01:10:00.001Z,11.90
2019-04-29T01:12:38.086Z,11.90
2019-04-29T01:15:19.279Z,11.90
2019-04-29T01:17:56.682Z,12.00
2019-04-29T01:20:29.586Z,12.00
2019-04-29T01:23:05.607Z,12.00
2019-04-29T01:25:44.342Z,12.00
2019-04-29T01:28:28.256Z,12.00
2019-04-29T01:31:25.385Z,12.00
2019-04-29T01:34:01.762Z,12.00
2019-04-29T01:36:45.259Z,12.00
2019-04-29T01:39:21.054Z,12.00
2019-04-29T01:42:01.124Z,12.00
2019-04-29T01:44:35.776Z,12.10
2019-04-29T01:47:18.078Z,12.00
2019-04-29T01:49:51.671Z,12.00
2019-04-29T01:52:22.378Z,12.00
2019-04-29T01:54:55.950Z,12.00
2019-04-29T01:57:31.780Z,12.00
2019-04-29T02:00:08.438Z,12.00
2019-04-29T02:02:40.205Z,12.00
2019-04-29T02:05:12.156Z,12.00
2019-04-29T02:07:46.878Z,11.90
2019-04-29T02:10:28.179Z,11.90
2019-04-29T02:13:01.564Z,11.90
2019-04-29T02:15:36.072Z,11.80
2019-04-29T02:18:17.901Z,11.80
2019-04-29T02:20:49.357Z,11.80
2019-04-29T02:23:26.185Z,11.80
2019-04-29T02:25:56.995Z,11.90
2019-04-29T02:28:28.034Z,11.90
2019-04-29T02:31:02.640Z,11.90
2019-04-29T02:33:33.454Z,11.90
2019-04-29T02:36:06.676Z,11.80
2019-04-29T02:38:48.794Z,11.80
2019-04-29T02:41:42.347Z,11.80
2019-04-29T02:44:15.108Z,11.80
2019-04-29T02:46:49.879Z,11.80
2019-04-29T02:49:19.217Z,11.80
2019-04-29T02:51:53.589Z,11.80
2019-04-29T02:54:24.786Z,11.80
2019-04-29T02:57:02.682Z,11.80
2019-04-29T02:59:41.780Z,11.80
2019-04-29T03:02:20.574Z,11.90
2019-04-29T03:05:14.503Z,11.90
2019-04-29T03:07:49.085Z,11.90
2019-04-29T03:10:18.877Z,11.90
2019-04-29T03:12:55.124Z,11.90
2019-04-29T03:15:43.381Z,11.90
2019-04-29T03:18:28.883Z,11.90
2019-04-29T03:21:08.978Z,11.90
2019-04-29T03:23:43.913Z,11.90
2019-04-29T03:26:19.203Z,11.90
2019-04-29T03:28:52.940Z,11.90
2019-04-29T03:31:27.773Z,11.90
2019-04-29T03:33:59.937Z,12.00
2019-04-29T03:36:32.144Z,12.00
2019-04-29T03:39:05.934Z,12.00
2019-04-29T03:41:42.070Z,12.00
2019-04-29T03:44:38.865Z,12.00
2019-04-29T03:47:21.404Z,12.10
2019-04-29T03:49:48.801Z,12.10
2019-04-29T03:52:20.046Z,12.20
2019-04-29T03:54:54.017Z,12.20
2019-04-29T03:57:28.214Z,12.20
2019-04-29T04:00:03.502Z,12.20
2019-04-29T04:02:42.586Z,12.10
2019-04-29T04:05:32.653Z,12.20
2019-04-29T04:08:24.889Z,12.20
2019-04-29T04:10:58.330Z,12.30
2019-04-29T04:13:37.959Z,12.30
2019-04-29T04:16:12.803Z,12.30
2019-04-29T04:18:48.540Z,12.40
2019-04-29T04:21:27.017Z,12.40
2019-04-29T04:24:05.045Z,12.40
2019-04-29T04:26:37.700Z,12.30
2019-04-29T04:29:15.582Z,12.30
2019-04-29T04:31:56.954Z,12.40
2019-04-29T04:34:29.006Z,12.50
2019-04-29T04:37:05.025Z,12.50
2019-04-29T04:39:44.268Z,12.60
2019-04-29T04:42:33.506Z,12.60
2019-04-29T04:45:05.600Z,12.60
2019-04-29T04:48:05.525Z,12.60
2019-04-29T04:50:47.955Z,12.50
2019-04-29T04:53:28.901Z,12.60
2019-04-29T04:55:51.637Z,12.70
2019-04-29T04:58:36.514Z,12.70
2019-04-29T05:01:15.847Z,12.70
2019-04-29T05:03:47.221Z,12.80
2019-04-29T05:06:21.439Z,12.80
2019-04-29T05:09:05.101Z,12.80
2019-04-29T05:11:31.280Z,12.70
2019-04-29T05:14:22.595Z,12.60
2019-04-29T05:20:51.571Z,12.80
2019-04-29T05:24:17.758Z,12.80
2019-04-29T05:26:51.567Z,12.90
2019-04-29T05:29:44.254Z,12.90
2019-04-29T05:32:17.013Z,13.00
2019-04-29T05:40:40.013Z,13.10
2019-04-29T05:43:17.647Z,13.20
2019-04-29T05:46:21.357Z,13.50
2019-04-29T05:52:05.311Z,13.60
2019-04-29T05:54:40.612Z,13.70
2019-04-29T05:57:20.419Z,13.90
2019-04-29T06:00:05.539Z,14.00
2019-04-29T06:02:43.798Z,14.00
2019-04-29T06:05:19.328Z,14.10
2019-04-29T06:08:00.869Z,14.20
2019-04-29T06:10:32.269Z,14.30
2019-04-29T06:13:17.183Z,14.40
2019-04-29T06:15:48.325Z,14.70
2019-04-29T06:18:25.037Z,14.70
2019-04-29T06:21:08.212Z,14.80
2019-04-29T06:23:34.272Z,14.70
2019-04-29T06:26:09.373Z,14.70
2019-04-29T06:28:50.052Z,14.70
2019-04-29T06:31:22.900Z,14.80
2019-04-29T06:34:00.665Z,14.80
2019-04-29T06:36:43.225Z,14.90
2019-04-29T06:39:27.590Z,15.00
2019-04-29T06:44:51.998Z,15.10
2019-04-29T06:47:26.200Z,15.20
2019-04-29T06:50:09.396Z,15.20
2019-04-29T06:52:51.995Z,15.10
2019-04-29T06:55:20.254Z,14.90
2019-04-29T06:57:57.194Z,14.80
2019-04-29T07:00:34.232Z,14.70
2019-04-29T07:03:06.702Z,14.70
2019-04-29T07:05:46.779Z,14.70
2019-04-29T07:08:31.914Z,14.70
2019-04-29T07:11:08.044Z,14.70
2019-04-29T07:13:48.953Z,14.80
2019-04-29T07:16:31.905Z,15.00
2019-04-29T07:19:01.210Z,15.30
2019-04-29T07:21:41.833Z,15.50
2019-04-29T07:27:09.958Z,15.90
2019-04-29T07:30:09.108Z,16.50
2019-04-29T07:32:50.947Z,16.90
2019-04-29T07:43:26.587Z,17.60
2019-04-29T07:46:34.587Z,17.80
2019-04-29T07:49:54.662Z,17.80
2019-04-29T07:52:35.236Z,17.70
2019-04-29T07:56:05.807Z,18.00
2019-04-29T08:02:41.928Z,18.40
2019-04-29T08:05:04.197Z,18.70
2019-04-29T08:07:39.071Z,18.70
2019-04-29T08:10:28.605Z,18.80
2019-04-29T08:13:05.404Z,19.10
2019-04-29T08:15:48.327Z,19.20
2019-04-29T08:18:33.231Z,19.30
2019-04-29T08:21:14.457Z,19.50
2019-04-29T08:23:52.353Z,19.50
2019-04-29T08:26:20.127Z,19.60
2019-04-29T08:29:02.585Z,19.70
2019-04-29T08:31:40.591Z,19.90
2019-04-29T08:34:18.616Z,19.90
2019-04-29T08:40:14.813Z,20.10
2019-04-29T08:42:32.477Z,20.20
2019-04-29T08:45:18.643Z,20.30
2019-04-29T08:47:48.373Z,20.20
2019-04-29T08:50:22.798Z,20.20
2019-04-29T08:52:52.487Z,20.20
2019-04-29T08:55:26.795Z,20.40
2019-04-29T08:58:31.726Z,20.60
2019-04-29T09:00:51.432Z,20.80
2019-04-29T09:03:24.608Z,20.60
2019-04-29T09:06:05.262Z,20.70
2019-04-29T09:08:32.833Z,20.90
2019-04-29T09:11:12.314Z,20.70
2019-04-29T09:13:44.295Z,21.10
2019-04-29T09:16:45.354Z,21.40
2019-04-29T09:19:20.394Z,21.70
2019-04-29T09:21:53.669Z,21.50
2019-04-29T09:24:28.035Z,21.70
2019-04-29T09:27:12.088Z,21.60
2019-04-29T09:29:46.486Z,21.80
2019-04-29T09:32:14.788Z,22.10
2019-04-29T09:34:46.492Z,21.90
2019-04-29T09:37:22.891Z,22.20
2019-04-29T09:39:59.920Z,22.20
2019-04-29T09:42:52.525Z,22.10
2019-04-29T09:45:39.646Z,21.80
2019-04-29T09:48:09.298Z,21.90
2019-04-29T09:50:43.933Z,21.90
2019-04-29T09:53:17.614Z,22.00
2019-04-29T09:56:02.778Z,22.20
2019-04-29T09:58:33.829Z,22.10
2019-04-29T10:01:40.856Z,22.20
2019-04-29T10:04:27.299Z,22.70
2019-04-29T10:07:02.056Z,22.60
2019-04-29T10:09:38.386Z,22.40
2019-04-29T10:12:15.626Z,22.50
2019-04-29T10:15:10.757Z,22.30
2019-04-29T10:18:02.267Z,22.30
2019-04-29T10:21:05.337Z,22.40
2019-04-29T10:23:59.685Z,22.10
2019-04-29T10:26:29.509Z,21.90
2019-04-29T10:29:18.485Z,22.00
2019-04-29T10:32:12.711Z,22.00
2019-04-29T10:35:08.518Z,22.20
2019-04-29T10:37:36.107Z,22.20
2019-04-29T10:40:33.707Z,22.30
2019-04-29T10:43:19.093Z,22.50
2019-04-29T10:46:25.623Z,22.30
2019-04-29T10:49:49.297Z,22.20
2019-04-29T10:52:17.939Z,22.10
2019-04-29T10:54:55.174Z,22.50
2019-04-29T10:57:40.303Z,22.70
2019-04-29T11:00:39.107Z,22.80
2019-04-29T11:03:20.742Z,22.50
2019-04-29T11:06:31.211Z,22.50
2019-04-29T11:08:48.625Z,22.40
2019-04-29T11:11:27.077Z,22.50
2019-04-29T11:17:01.163Z,22.40
2019-04-29T11:23:16.458Z,22.40
2019-04-29T11:26:25.968Z,22.40
2019-04-29T11:29:06.255Z,22.50
2019-04-29T11:31:44.607Z,22.70
2019-04-29T11:34:48.411Z,22.80
2019-04-29T11:37:23.893Z,22.90
2019-04-29T11:40:14.044Z,23.00
2019-04-29T11:42:41.867Z,23.10
2019-04-29T11:45:21.296Z,23.00
2019-04-29T11:47:58.868Z,22.70
2019-04-29T11:50:37.376Z,23.00
2019-04-29T11:53:18.744Z,23.00
2019-04-29T11:55:56.962Z,23.40
2019-04-29T11:58:30.798Z,23.70
2019-04-29T12:01:17.835Z,23.80
2019-04-29T12:04:01.964Z,23.40
2019-04-29T12:06:38.792Z,23.20
2019-04-29T12:09:14.907Z,23.10
2019-04-29T12:11:58.309Z,23.40
2019-04-29T12:14:54.536Z,23.60
2019-04-29T12:17:42.790Z,23.20
2019-04-29T12:20:40.277Z,22.90
2019-04-29T12:23:18.303Z,23.30
2019-04-29T12:26:04.703Z,23.60
2019-04-29T12:28:59.044Z,23.60
2019-04-29T12:31:54.815Z,23.40
2019-04-29T12:34:40.816Z,23.10
2019-04-29T12:38:00.767Z,22.90
2019-04-29T12:41:21.149Z,22.60
2019-04-29T12:44:00.723Z,22.40
2019-04-29T12:46:55.074Z,21.90
2019-04-29T12:49:30.413Z,22.00
2019-04-29T12:52:08.159Z,22.40
2019-04-29T12:54:47.743Z,22.50
2019-04-29T12:57:41.072Z,22.60
2019-04-29T13:00:48.121Z,23.00
2019-04-29T13:03:51.069Z,22.80
2019-04-29T13:07:22.862Z,22.90
2019-04-29T13:10:20.055Z,23.00
2019-04-29T13:12:58.251Z,22.90
2019-04-29T13:15:54.282Z,22.50
2019-04-29T13:18:38.526Z,22.30
2019-04-29T13:21:33.981Z,22.50
2019-04-29T13:24:22.823Z,22.90
2019-04-29T13:26:50.261Z,23.20
2019-04-29T13:29:27.174Z,23.20
2019-04-29T13:31:55.509Z,23.40
2019-04-29T13:35:05.088Z,23.10
2019-04-29T13:37:36.963Z,22.90
2019-04-29T13:42:56.593Z,22.90
2019-04-29T13:49:12.130Z,23.10
2019-04-29T13:51:43.842Z,23.10
2019-04-29T13:54:06.254Z,23.00
2019-04-29T13:56:55.526Z,23.10
2019-04-29T13:59:21.235Z,23.10
2019-04-29T14:02:07.925Z,23.10
2019-04-29T14:04:46.781Z,23.00
2019-04-29T14:07:21.365Z,23.10
2019-04-29T14:09:58.068Z,23.40
2019-04-29T14:13:31.937Z,23.40
2019-04-29T14:15:33.867Z,23.40
2019-04-29T14:18:13.591Z,23.20
2019-04-29T14:20:42.833Z,22.50
2019-04-29T14:23:22.570Z,22.00
2019-04-29T14:25:59.420Z,21.40
2019-04-29T14:28:39.572Z,21.10
2019-04-29T14:31:18.669Z,20.70
2019-04-29T14:34:00.415Z,20.60
2019-04-29T14:36:31.106Z,20.50
2019-04-29T14:39:04.110Z,20.30
2019-04-29T14:41:38.995Z,20.20
2019-04-29T14:44:51.266Z,20.20
2019-04-29T14:47:45.382Z,20.10
2019-04-29T14:50:23.074Z,20.30
2019-04-29T14:52:56.465Z,20.60
2019-04-29T14:55:27.771Z,20.70
2019-04-29T14:58:02.976Z,20.70
2019-04-29T15:00:50.344Z,20.90
2019-04-29T15:03:22.098Z,20.90
2019-04-29T15:05:55.547Z,21.10
2019-04-29T15:08:41.063Z,21.10
2019-04-29T15:11:08.328Z,21.20
2019-04-29T15:13:43.165Z,21.20
2019-04-29T15:16:38.586Z,21.30
2019-04-29T15:19:30.002Z,21.30
2019-04-29T15:22:18.828Z,21.10
2019-04-29T15:24:48.518Z,21.20
2019-04-29T15:27:20.875Z,21.20
2019-04-29T15:29:53.651Z,21.10
2019-04-29T15:32:33.783Z,20.90
2019-04-29T15:35:06.841Z,20.80
2019-04-29T15:37:40.436Z,20.80
2019-04-29T15:40:26.351Z,20.70
2019-04-29T15:42:59.226Z,20.50
2019-04-29T15:45:42.015Z,20.30
2019-04-29T15:48:23.058Z,20.20
2019-04-29T15:50:59.497Z,20.20
2019-04-29T15:53:37.791Z,20.20
2019-04-29T15:56:28.723Z,20.20
2019-04-29T15:58:53.171Z,20.20
2019-04-29T16:01:29.940Z,20.20
2019-04-29T16:04:07.043Z,20.20
2019-04-29T16:07:26.215Z,20.10
2019-04-29T16:10:23.057Z,20.10
2019-04-29T16:13:15.993Z,20.00
2019-04-29T16:15:54.599Z,19.90
2019-04-29T16:18:17.069Z,20.00
2019-04-29T16:20:53.937Z,19.90
2019-04-29T16:23:49.461Z,19.80
2019-04-29T16:26:32.543Z,19.80
2019-04-29T16:29:12.546Z,19.80
2019-04-29T16:31:42.290Z,19.60
2019-04-29T16:34:22.642Z,19.40
2019-04-29T16:37:01.832Z,19.30
2019-04-29T16:39:32.746Z,19.10
2019-04-29T16:42:25.867Z,19.10
2019-04-29T16:45:12.327Z,19.00
2019-04-29T16:47:34.046Z,18.90
2019-04-29T16:50:15.008Z,18.90
2019-04-29T16:52:46.561Z,18.80
2019-04-29T16:55:21.830Z,18.70
2019-04-29T16:58:06.474Z,18.60
2019-04-29T17:00:36.572Z,18.50
2019-04-29T17:03:10.438Z,18.50
2019-04-29T17:05:57.362Z,18.40
2019-04-29T17:08:35.468Z,18.30
2019-04-29T17:11:37.542Z,18.30
2019-04-29T17:14:17.104Z,18.10
2019-04-29T17:16:48.902Z,18.00
2019-04-29T17:19:30.457Z,17.90
2019-04-29T17:22:25.338Z,17.80
2019-04-29T17:24:47.986Z,17.70
2019-04-29T17:28:11.970Z,17.70
2019-04-29T17:31:33.053Z,17.60
2019-04-29T17:34:59.687Z,17.50
2019-04-29T17:37:32.203Z,17.40
2019-04-29T17:40:23.379Z,17.40
2019-04-29T17:43:12.190Z,17.30
2019-04-29T17:49:30.741Z,17.30
2019-04-29T17:52:17.902Z,17.30
2019-04-29T17:54:49.032Z,17.20
2019-04-29T17:57:39.594Z,17.20
2019-04-29T18:00:55.236Z,17.10
2019-04-29T18:03:41.602Z,17.00
2019-04-29T18:06:26.447Z,16.90
2019-04-29T18:09:18.312Z,16.80
2019-04-29T18:15:10.797Z,16.50
2019-04-29T18:17:56.045Z,16.40
2019-04-29T18:21:03.086Z,16.30
2019-04-29T18:23:59.758Z,16.20
2019-04-29T18:26:44.245Z,16.10
2019-04-29T18:36:45.770Z,15.80
2019-04-29T18:46:05.400Z,16.00
2019-04-29T18:46:37.833Z,15.40
2019-04-29T18:56:32.340Z,15.10
2019-04-29T18:59:10.074Z,15.00
2019-04-29T19:01:52.544Z,14.90
2019-04-29T19:05:03.823Z,14.80
2019-04-29T19:07:40.089Z,14.70
2019-04-29T19:10:32.150Z,14.70
2019-04-29T19:16:52.672Z,14.50
2019-04-29T19:19:30.649Z,14.40
2019-04-29T19:56:12.667Z,13.50
2019-04-29T20:02:10.437Z,13.30
2019-04-29T20:05:16.324Z,13.30
2019-04-29T20:07:49.598Z,13.30
2019-04-29T20:10:18.370Z,13.20
2019-04-29T20:12:52.991Z,13.10
2019-04-29T20:15:19.948Z,13.00
2019-04-29T20:18:14.938Z,13.10
2019-04-29T20:21:28.187Z,12.90
2019-04-29T20:23:53.402Z,12.90
2019-04-29T20:26:28.947Z,12.80
2019-04-29T20:28:55.683Z,12.70
2019-04-29T20:31:26.827Z,12.70
2019-04-29T20:33:58.652Z,12.70
2019-04-29T20:36:38.391Z,12.60
2019-04-29T20:38:58.903Z,12.60
2019-04-29T20:41:40.208Z,12.50
2019-04-29T20:44:05.741Z,12.50
2019-04-29T20:46:43.327Z,12.50
2019-04-29T20:49:08.823Z,12.40
2019-04-29T20:51:48.917Z,12.40
2019-04-29T20:54:19.384Z,12.40
2019-04-29T20:57:04.881Z,12.30
2019-04-29T20:59:41.895Z,12.30
2019-04-29T21:02:12.021Z,12.30
2019-04-29T21:04:45.878Z,12.30
2019-04-29T21:07:23.504Z,12.20
2019-04-29T21:09:59.839Z,12.20
2019-04-29T21:12:43.268Z,12.20
2019-04-29T21:15:19.726Z,12.10
2019-04-29T21:17:55.620Z,12.20
2019-04-29T21:20:28.560Z,12.10
2019-04-29T21:23:01.049Z,12.10
2019-04-29T21:25:37.158Z,12.10
2019-04-29T21:28:13.194Z,12.10
2019-04-29T21:30:46.845Z,12.00
2019-04-29T21:33:20.970Z,12.00
2019-04-29T21:36:06.567Z,12.00
2019-04-29T21:38:55.732Z,11.90
2019-04-29T21:41:38.684Z,11.90
2019-04-29T21:44:08.292Z,11.90
2019-04-29T21:46:38.080Z,11.90
2019-04-29T21:49:15.662Z,11.80
2019-04-29T21:51:46.570Z,11.80
2019-04-29T21:54:17.025Z,11.80
2019-04-29T21:56:52.804Z,11.70
2019-04-29T21:59:25.754Z,11.70
2019-04-29T22:01:59.697Z,11.70
2019-04-29T22:04:32.782Z,11.60
2019-04-29T22:07:08.906Z,11.60
2019-04-29T22:09:40.580Z,11.50
2019-04-29T22:12:14.182Z,11.50
2019-04-29T22:14:54.110Z,11.40
2019-04-29T22:17:34.320Z,11.40
2019-04-29T22:20:56.015Z,11.40
2019-04-29T22:22:42.875Z,11.30
2019-04-29T22:25:17.148Z,11.30
2019-04-29T22:27:46.801Z,11.20
2019-04-29T22:30:18.747Z,11.20
2019-04-29T22:32:58.144Z,11.20
2019-04-29T22:35:32.336Z,11.20
2019-04-29T22:38:01.005Z,11.20
2019-04-29T22:40:34.217Z,11.20
2019-04-29T22:43:29.532Z,11.20
2019-04-29T22:46:04.722Z,11.20
2019-04-29T22:48:36.433Z,11.20
2019-04-29T22:51:10.048Z,11.10
2019-04-29T22:53:47.954Z,11.10
2019-04-29T22:56:19.194Z,11.10
2019-04-29T22:58:55.985Z,11.10
2019-04-29T23:01:28.772Z,11.10
2019-04-29T23:04:09.752Z,11.10
2019-04-29T23:06:39.803Z,11.00
2019-04-29T23:09:12.085Z,11.00
2019-04-29T23:11:47.442Z,11.00
2019-04-29T23:14:16.678Z,11.00
2019-04-29T23:16:58.960Z,11.00
2019-04-29T23:19:30.108Z,11.00
2019-04-29T23:22:31.085Z,11.20
2019-04-29T23:25:09.436Z,11.20
2019-04-29T23:27:48.415Z,11.30
2019-04-29T23:30:21.522Z,11.40
2019-04-29T23:32:56.095Z,11.50
2019-04-29T23:35:28.558Z,11.60
2019-04-29T23:38:04.440Z,11.70
2019-04-29T23:40:32.762Z,11.80
2019-04-29T23:43:07.330Z,11.90
2019-04-29T23:45:40.136Z,12.00
2019-04-29T23:48:12.177Z,12.00
2019-04-29T23:50:49.707Z,11.90
2019-04-29T23:53:25.147Z,11.90
2019-04-29T23:56:00.042Z,11.90
2019-04-29T23:58:46.744Z,11.80
